Time;durP1;ratioP1;P1;durP2;ratioP2;P2;SDS_P1;SDS_P2;PMS_P1;PMS_P2;Temp;Humidity;BMP_temperature;BMP_pressure;BME280_temperature;BME280_humidity;BME280_pressure;Samples;Min_cycle;Max_cycle;Signal;HPM_P1;HPM_P2
2022/06/06 00:02:01;;;;;;;9.68;4.25;;;18.80;94.50;;;;;;4991043;28;20030;-75
2022/06/06 00:04:28;;;;;;;12.93;5.30;;;18.80;94.50;;;;;;4990796;28;20033;-76
2022/06/06 00:06:55;;;;;;;10.98;4.20;;;18.90;94.60;;;;;;4985990;28;20113;-75
2022/06/06 00:09:21;;;;;;;10.30;4.57;;;18.90;94.50;;;;;;4991032;28;20026;-75
2022/06/06 00:11:47;;;;;;;10.23;4.28;;;19.00;94.40;;;;;;4989051;28;20057;-76
2022/06/06 00:14:14;;;;;;;13.50;4.70;;;19.10;94.40;;;;;;4990767;28;20124;-77
2022/06/06 00:16:40;;;;;;;10.57;4.18;;;19.10;94.40;;;;;;4986146;28;20085;-75
2022/06/06 00:19:06;;;;;;;12.85;4.93;;;19.10;94.50;;;;;;4989302;28;20400;-76
2022/06/06 00:21:33;;;;;;;11.88;4.88;;;19.10;94.60;;;;;;4990711;28;20030;-76
2022/06/06 00:23:59;;;;;;;13.50;4.93;;;19.10;94.40;;;;;;4989142;28;20034;-75
2022/06/06 00:26:27;;;;;;;11.48;4.78;;;19.10;94.50;;;;;;4990602;28;20037;-76
2022/06/06 00:28:53;;;;;;;15.95;5.32;;;19.10;94.50;;;;;;4990258;28;20113;-74
2022/06/06 00:36:47;;;;;;;13.63;5.05;;;19.20;94.40;;;;;;4990707;28;20169;-75
2022/06/06 00:39:15;;;;;;;14.50;5.10;;;19.20;94.30;;;;;;4987564;28;20109;-75
2022/06/06 00:41:44;;;;;;;13.20;4.90;;;19.20;94.20;;;;;;4990339;28;20177;-76
2022/06/06 00:44:18;;;;;;;15.15;5.30;;;19.20;94.10;;;;;;4986704;28;20117;-75
2022/06/06 00:46:50;;;;;;;12.65;5.10;;;19.20;94.00;;;;;;4989193;28;20030;-75
2022/06/06 00:49:20;;;;;;;;;;;19.20;93.80;;;;;;4990456;28;20084;-76
2022/06/06 00:51:45;;;;;;;15.30;5.22;;;19.30;93.80;;;;;;4990201;28;19913;-75
2022/06/06 00:54:11;;;;;;;16.55;5.32;;;19.30;93.60;;;;;;4988847;28;20037;-75
2022/06/06 00:56:43;;;;;;;14.63;5.63;;;19.20;93.50;;;;;;4988730;28;20034;-75
2022/06/06 00:59:16;;;;;;;14.93;5.05;;;19.20;93.60;;;;;;4990306;28;20034;-76
2022/06/06 01:01:42;;;;;;;11.30;4.75;;;19.00;93.60;;;;;;4989325;28;20041;-77
2022/06/06 01:04:10;;;;;;;13.30;4.82;;;19.00;93.90;;;;;;4989304;28;20084;-75
2022/06/06 01:06:39;;;;;;;15.77;5.40;;;18.90;93.90;;;;;;4972465;28;20134;-76
2022/06/06 01:09:05;;;;;;;15.23;5.32;;;18.80;94.00;;;;;;4988107;28;20586;-75
2022/06/06 01:11:37;;;;;;;12.60;5.10;;;18.70;94.00;;;;;;4990197;28;20077;-76
2022/06/06 01:14:04;;;;;;;11.57;5.28;;;18.70;94.20;;;;;;4989101;28;20027;-76
2022/06/06 01:16:44;;;;;;;13.25;5.55;;;18.70;94.20;;;;;;4988328;28;20068;-75
2022/06/06 01:19:56;;;;;;;14.30;5.40;;;18.60;94.30;;;;;;4982246;28;20124;-76
2022/06/06 01:22:59;;;;;;;10.85;5.13;;;18.50;94.40;;;;;;4971941;28;20123;-75
2022/06/06 01:25:53;;;;;;;14.38;5.40;;;18.50;94.50;;;;;;4976592;28;20031;-75
2022/06/06 01:28:25;;;;;;;12.13;5.20;;;18.40;94.40;;;;;;4981997;28;20032;-75
2022/06/06 01:30:58;;;;;;;12.73;5.25;;;18.40;94.50;;;;;;4976596;28;20076;-76
2022/06/06 01:33:23;;;;;;;11.75;5.13;;;18.30;94.40;;;;;;4993576;28;20023;-76
2022/06/06 01:35:52;;;;;;;12.02;5.93;;;18.30;94.40;;;;;;4992763;28;20034;-75
2022/06/06 01:38:22;;;;;;;13.07;5.88;;;18.30;94.40;;;;;;4993678;28;20035;-76
2022/06/06 01:41:07;;;;;;;13.85;5.55;;;18.30;94.50;;;;;;4992371;28;20065;-76
2022/06/06 01:43:43;;;;;;;11.73;5.30;;;18.30;94.40;;;;;;4993157;28;20105;-77
2022/06/06 01:46:14;;;;;;;13.23;5.50;;;18.30;94.40;;;;;;4993968;28;20427;-77
2022/06/06 01:48:42;;;;;;;15.07;5.97;;;18.20;94.40;;;;;;4993168;28;20034;-76
2022/06/06 01:51:13;;;;;;;12.07;5.97;;;18.20;94.40;;;;;;4993251;28;20274;-76
2022/06/06 01:53:39;;;;;;;15.00;5.65;;;18.30;94.40;;;;;;4993835;28;20030;-76
2022/06/06 01:56:07;;;;;;;13.10;5.63;;;18.30;94.30;;;;;;4978880;28;20069;-76
2022/06/06 01:58:33;;;;;;;9.88;5.55;;;18.30;94.10;;;;;;4992416;28;20499;-76
2022/06/06 02:00:59;;;;;;;13.02;5.43;;;18.30;94.00;;;;;;4986398;28;20056;-76
2022/06/06 02:03:25;;;;;;;15.85;6.57;;;18.30;94.00;;;;;;4993209;28;20550;-76
2022/06/06 02:05:50;;;;;;;15.52;6.15;;;18.30;94.00;;;;;;4979394;28;20030;-76
2022/06/06 02:08:17;;;;;;;11.38;5.50;;;18.20;94.00;;;;;;4993566;28;20027;-76
2022/06/06 02:10:42;;;;;;;13.02;6.13;;;18.20;94.00;;;;;;4993231;28;20046;-75
2022/06/06 02:13:08;;;;;;;11.48;5.90;;;18.10;94.00;;;;;;4975676;28;20065;-76
2022/06/06 02:15:34;;;;;;;11.98;5.45;;;18.10;94.10;;;;;;4992974;28;20541;-75
2022/06/06 02:18:00;;;;;;;15.38;6.07;;;18.10;94.00;;;;;;4992145;28;20510;-76
2022/06/06 02:20:29;;;;;;;11.95;6.03;;;18.10;94.10;;;;;;4993313;28;20027;-75
2022/06/06 02:22:55;;;;;;;13.40;6.00;;;18.10;94.10;;;;;;4991258;28;20030;-75
2022/06/06 02:25:22;;;;;;;12.38;6.40;;;18.00;94.10;;;;;;4992771;28;20029;-76
2022/06/06 02:27:48;;;;;;;13.25;6.32;;;18.00;94.00;;;;;;4970469;28;20033;-76
2022/06/06 02:30:26;;;;;;;12.68;6.70;;;18.00;94.10;;;;;;4975712;28;20415;-76
2022/06/06 02:32:52;;;;;;;12.60;6.40;;;18.00;94.10;;;;;;4993280;28;20398;-74
2022/06/06 02:35:22;;;;;;;12.05;6.18;;;18.00;94.10;;;;;;4993113;28;20120;-75
2022/06/06 02:37:49;;;;;;;12.30;6.22;;;18.00;94.10;;;;;;4990626;28;20033;-76
2022/06/06 02:40:17;;;;;;;10.32;5.93;;;17.90;94.00;;;;;;5006698;28;20037;-75
2022/06/06 02:42:43;;;;;;;16.17;6.53;;;17.90;94.10;;;;;;4991222;28;20058;-75
2022/06/06 02:45:10;;;;;;;12.35;6.70;;;18.00;94.00;;;;;;4992160;28;20085;-75
2022/06/06 02:47:37;;;;;;;10.52;6.60;;;18.00;94.00;;;;;;4992910;28;20065;-76
2022/06/06 02:50:05;;;;;;;12.73;6.88;;;18.00;93.90;;;;;;4992663;28;20033;-76
2022/06/06 02:52:30;;;;;;;11.98;6.97;;;18.00;93.80;;;;;;4985449;28;20109;-75
2022/06/06 02:54:56;;;;;;;11.38;6.80;;;18.00;93.70;;;;;;4992514;28;20062;-75
2022/06/06 02:57:21;;;;;;;14.70;7.00;;;18.00;93.60;;;;;;4992073;28;20567;-75
2022/06/06 02:59:50;;;;;;;11.55;6.88;;;18.00;93.60;;;;;;4990842;28;20023;-72
2022/06/06 03:02:16;;;;;;;11.98;6.32;;;18.00;93.60;;;;;;4991470;28;20114;-72
2022/06/06 03:04:42;;;;;;;12.57;7.30;;;18.00;93.60;;;;;;4991369;28;20109;-76
2022/06/06 03:07:21;;;;;;;14.18;7.82;;;18.00;93.70;;;;;;4975130;28;20038;-76
2022/06/06 03:10:20;;;;;;;12.95;6.95;;;17.90;93.70;;;;;;4975209;28;20487;-76
2022/06/06 03:13:01;;;;;;;11.93;7.15;;;17.90;93.80;;;;;;4968077;28;20491;-76
2022/06/06 03:22:46;;;;;;;13.45;7.00;;;17.90;93.90;;;;;;4992991;28;20037;-77
2022/06/06 03:25:26;;;;;;;12.20;6.40;;;17.80;93.90;;;;;;4991477;28;20847;-72
2022/06/06 03:28:43;;;;;;;14.23;6.93;;;17.80;93.90;;;;;;4959833;28;20053;-75
2022/06/06 03:31:48;;;;;;;11.80;7.10;;;17.80;93.90;;;;;;4948863;28;20409;-76
2022/06/06 03:34:51;;;;;;;13.90;7.15;;;17.70;93.90;;;;;;4977637;28;20450;-75
2022/06/06 03:37:47;;;;;;;11.70;6.95;;;17.70;93.80;;;;;;4985663;28;20031;-75
2022/06/06 03:40:35;;;;;;;12.90;7.45;;;17.70;93.80;;;;;;4987817;28;20027;-76
2022/06/06 03:43:11;;;;;;;13.05;7.40;;;17.80;93.70;;;;;;4995778;28;20069;-75
2022/06/06 03:45:52;;;;;;;12.50;7.35;;;17.80;93.70;;;;;;4995920;28;20526;-75
2022/06/06 03:48:33;;;;;;;14.98;7.25;;;17.90;93.70;;;;;;4996376;28;20065;-76
2022/06/06 03:51:38;;;;;;;12.65;7.60;;;17.90;93.60;;;;;;4996228;28;20022;-75
2022/06/06 03:54:41;;;;;;;10.43;6.80;;;17.90;93.50;;;;;;4995147;28;20026;-76
2022/06/06 03:57:21;;;;;;;13.15;8.10;;;17.90;93.40;;;;;;4962158;28;20041;-76
2022/06/06 03:59:50;;;;;;;14.70;7.60;;;17.80;93.40;;;;;;4984878;28;20038;-75
2022/06/06 04:02:28;;;;;;;12.68;7.60;;;17.80;93.50;;;;;;4995020;28;20030;-75
2022/06/06 04:04:55;;;;;;;10.63;6.90;;;17.80;93.50;;;;;;4988383;28;20589;-76
2022/06/06 04:07:21;;;;;;;13.55;7.30;;;17.80;93.60;;;;;;4978821;28;20041;-76
2022/06/06 04:09:47;;;;;;;13.70;7.97;;;17.80;93.70;;;;;;4978484;28;20105;-76
2022/06/06 04:12:32;;;;;;;12.98;7.30;;;17.70;93.60;;;;;;4994517;28;20026;-76
2022/06/06 04:15:03;;;;;;;12.15;7.55;;;17.70;93.70;;;;;;4994954;28;20026;-76
2022/06/06 04:17:55;;;;;;;13.15;7.28;;;17.70;93.70;;;;;;4990203;28;20033;-76
2022/06/06 04:20:38;;;;;;;11.35;7.10;;;17.70;93.70;;;;;;4995541;28;20039;-76
2022/06/06 04:23:22;;;;;;;13.57;7.25;;;17.70;93.80;;;;;;4994028;28;20023;-75
2022/06/06 04:26:02;;;;;;;12.18;7.30;;;17.70;93.80;;;;;;4995114;28;20077;-75
2022/06/06 04:28:52;;;;;;;13.48;7.40;;;17.70;93.80;;;;;;4992009;28;20022;-76
2022/06/06 04:31:47;;;;;;;12.32;7.32;;;17.70;93.80;;;;;;4973794;28;20519;-75
2022/06/06 04:34:31;;;;;;;12.77;7.32;;;17.70;93.80;;;;;;4993344;28;20031;-75
2022/06/06 04:37:19;;;;;;;11.70;7.60;;;17.60;93.80;;;;;;4993764;28;20033;-75
2022/06/06 04:40:09;;;;;;;10.88;7.22;;;17.70;93.70;;;;;;4992304;28;20040;-76
2022/06/06 04:42:35;;;;;;;12.23;6.88;;;17.70;93.60;;;;;;4978312;28;20031;-75
2022/06/06 04:45:14;;;;;;;10.95;6.95;;;17.70;93.60;;;;;;4993462;28;20446;-75
2022/06/06 04:47:41;;;;;;;12.88;6.95;;;17.80;93.70;;;;;;4994993;28;20026;-75
2022/06/06 04:50:17;;;;;;;11.35;6.90;;;17.70;93.40;;;;;;4994923;28;20121;-75
2022/06/06 04:52:48;;;;;;;14.45;6.93;;;17.80;93.40;;;;;;4994885;28;20062;-76
2022/06/06 04:55:15;;;;;;;12.48;7.25;;;17.80;93.40;;;;;;4994153;28;20034;-76
2022/06/06 04:57:45;;;;;;;12.50;6.75;;;17.70;93.40;;;;;;4985481;28;20034;-75
2022/06/06 05:00:11;;;;;;;12.27;7.47;;;17.70;93.40;;;;;;4993086;28;20491;-76
2022/06/06 05:02:36;;;;;;;14.48;7.43;;;17.70;93.50;;;;;;4994312;28;20041;-77
2022/06/06 05:05:05;;;;;;;15.73;8.10;;;17.70;93.40;;;;;;4988619;28;20073;-76
2022/06/06 05:07:49;;;;;;;14.77;7.60;;;17.70;93.30;;;;;;4994602;28;20097;-76
2022/06/06 05:10:34;;;;;;;14.88;7.65;;;17.70;93.40;;;;;;4976905;28;20048;-76
2022/06/06 05:13:28;;;;;;;14.10;7.60;;;17.70;93.30;;;;;;4982097;28;20404;-76
2022/06/06 05:16:14;;;;;;;14.32;7.40;;;17.70;93.30;;;;;;4977208;28;20023;-76
2022/06/06 05:19:01;;;;;;;13.48;7.53;;;17.70;93.40;;;;;;4986364;28;20018;-76
2022/06/06 05:21:30;;;;;;;12.18;6.95;;;17.70;93.40;;;;;;4994383;28;20065;-76
2022/06/06 05:24:08;;;;;;;13.88;7.53;;;17.60;93.40;;;;;;4994047;28;20510;-76
2022/06/06 05:26:59;;;;;;;12.23;6.85;;;17.70;93.40;;;;;;4994336;28;20165;-76
2022/06/06 05:29:43;;;;;;;12.43;7.40;;;17.60;93.40;;;;;;4976831;28;20034;-75
2022/06/06 05:32:28;;;;;;;15.45;7.38;;;17.60;93.50;;;;;;4994253;28;20023;-76
2022/06/06 05:35:02;;;;;;;12.60;7.00;;;17.70;93.50;;;;;;4976410;28;20072;-76
2022/06/06 05:37:46;;;;;;;14.38;7.25;;;17.60;93.60;;;;;;4976648;28;20030;-75
2022/06/06 05:40:28;;;;;;;11.35;6.97;;;17.60;93.50;;;;;;4993972;28;20053;-75
2022/06/06 05:43:03;;;;;;;12.05;7.18;;;17.60;93.40;;;;;;4993641;28;20090;-75
2022/06/06 05:46:05;;;;;;;13.80;8.10;;;17.60;93.40;;;;;;4976570;28;20026;-75
2022/06/06 05:48:57;;;;;;;11.90;7.00;;;17.60;93.40;;;;;;4993935;28;20515;-75
2022/06/06 05:51:55;;;;;;;11.88;6.93;;;17.70;93.40;;;;;;4976577;28;20058;-75
2022/06/06 05:55:07;;;;;;;11.98;7.35;;;17.70;93.40;;;;;;4989226;28;20061;-76
2022/06/06 05:57:52;;;;;;;12.38;7.15;;;17.70;93.40;;;;;;4992692;28;20034;-76
2022/06/06 06:00:34;;;;;;;13.23;7.43;;;17.70;93.40;;;;;;4976119;28;20045;-75
2022/06/06 06:03:25;;;;;;;14.50;7.20;;;17.70;93.40;;;;;;4975982;28;20026;-75
2022/06/06 06:06:09;;;;;;;11.95;6.85;;;17.60;93.40;;;;;;4993558;28;20034;-76
2022/06/06 06:09:03;;;;;;;11.63;7.47;;;17.60;93.40;;;;;;4975094;28;20049;-75
2022/06/06 06:11:56;;;;;;;12.00;7.30;;;17.60;93.40;;;;;;4989480;28;20062;-75
2022/06/06 06:14:50;;;;;;;11.40;7.10;;;17.70;93.40;;;;;;4969237;28;20038;-76
2022/06/06 06:17:21;;;;;;;13.02;7.80;;;17.60;93.40;;;;;;4979223;28;20029;-77
2022/06/06 06:20:19;;;;;;;12.10;7.03;;;17.60;93.40;;;;;;4992231;28;20030;-77
2022/06/06 06:22:58;;;;;;;12.27;7.35;;;17.60;93.50;;;;;;4976642;28;20049;-76
2022/06/06 06:25:25;;;;;;;11.48;7.55;;;17.60;93.50;;;;;;4991878;28;20066;-77
2022/06/06 06:27:58;;;;;;;12.95;7.43;;;17.60;93.50;;;;;;4989600;28;20023;-76
2022/06/06 06:30:31;;;;;;;11.70;7.45;;;17.60;93.40;;;;;;4964583;28;20026;-76
2022/06/06 06:33:19;;;;;;;12.15;7.40;;;17.60;93.40;;;;;;4968376;28;20026;-77
2022/06/06 06:36:04;;;;;;;11.20;7.30;;;17.60;93.40;;;;;;4983881;28;20419;-77
2022/06/06 06:38:57;;;;;;;12.82;7.50;;;17.60;93.50;;;;;;4971103;28;20032;-76
2022/06/06 06:41:56;;;;;;;12.18;8.13;;;17.60;93.50;;;;;;4964310;28;20553;-76
2022/06/06 06:44:29;;;;;;;14.70;9.50;;;17.60;93.40;;;;;;4975864;28;20037;-77
2022/06/06 06:46:57;;;;;;;12.82;8.10;;;17.60;93.30;;;;;;4992862;28;20698;-76
2022/06/06 06:49:53;;;;;;;12.85;8.00;;;17.60;93.20;;;;;;4976412;28;20034;-77
2022/06/06 06:52:38;;;;;;;11.38;7.85;;;17.70;93.20;;;;;;4977049;28;20019;-77
2022/06/06 06:55:12;;;;;;;11.88;7.63;;;17.70;93.10;;;;;;4982548;28;20027;-77
2022/06/06 06:58:01;;;;;;;13.95;8.57;;;17.70;93.10;;;;;;4987949;28;20034;-76
2022/06/06 07:00:39;;;;;;;10.77;7.03;;;17.60;93.10;;;;;;4985908;28;20061;-77
2022/06/06 07:09:19;;;;;;;13.65;8.38;;;17.60;93.10;;;;;;4971087;28;20029;-76
2022/06/06 07:12:08;;;;;;;13.48;8.77;;;17.60;93.10;;;;;;4974311;28;20019;-74
2022/06/06 07:15:12;;;;;;;13.63;8.00;;;17.60;93.10;;;;;;4956932;28;20031;-75
2022/06/06 07:17:45;;;;;;;13.82;8.23;;;17.60;93.20;;;;;;4956835;28;20038;-74
2022/06/06 07:20:14;;;;;;;13.00;8.25;;;17.60;93.20;;;;;;4957370;28;20118;-77
2022/06/06 07:22:59;;;;;;;12.10;8.18;;;17.60;93.20;;;;;;4974803;28;20031;-75
2022/06/06 07:25:26;;;;;;;12.48;8.10;;;17.50;93.20;;;;;;4974077;28;20419;-75
2022/06/06 07:27:51;;;;;;;14.57;7.85;;;17.60;93.20;;;;;;4973741;28;20058;-76
2022/06/06 07:30:18;;;;;;;12.27;8.10;;;17.60;93.20;;;;;;4957525;28;20093;-75
2022/06/06 07:33:18;;;;;;;11.30;7.75;;;17.60;93.10;;;;;;4975245;28;20543;-76
2022/06/06 07:36:01;;;;;;;12.63;8.13;;;17.70;93.10;;;;;;4973721;28;20038;-76
2022/06/06 07:38:30;;;;;;;12.60;8.13;;;17.60;93.00;;;;;;4974881;28;20089;-76
2022/06/06 07:41:01;;;;;;;11.63;7.93;;;17.70;93.00;;;;;;4975056;28;20035;-76
2022/06/06 07:43:57;;;;;;;12.32;8.30;;;17.80;92.90;;;;;;4974422;28;20039;-78
2022/06/06 07:46:43;;;;;;;11.55;7.60;;;17.80;92.70;;;;;;4974960;28;20146;-76
2022/06/06 07:49:21;;;;;;;12.50;7.82;;;17.80;92.50;;;;;;4974883;28;20391;-76
2022/06/06 07:51:50;;;;;;;11.18;7.80;;;17.90;92.40;;;;;;4990091;28;20134;-76
2022/06/06 07:54:36;;;;;;;12.05;8.02;;;17.90;92.40;;;;;;4993241;28;20126;-76
2022/06/06 07:57:19;;;;;;;10.85;7.53;;;17.90;92.30;;;;;;4993413;28;20527;-76
2022/06/06 07:59:59;;;;;;;13.15;7.35;;;17.90;92.20;;;;;;4993934;28;20100;-78
2022/06/06 08:02:51;;;;;;;11.10;7.13;;;17.90;92.30;;;;;;4993922;28;20101;-77
2022/06/06 08:05:35;;;;;;;10.90;7.28;;;17.90;92.20;;;;;;4976928;28;20042;-76
2022/06/06 08:08:21;;;;;;;10.88;7.65;;;17.90;92.30;;;;;;4977124;28;20030;-75
2022/06/06 08:10:48;;;;;;;11.07;7.30;;;17.90;92.20;;;;;;4994293;28;20081;-75
2022/06/06 08:13:37;;;;;;;11.35;7.28;;;17.90;92.20;;;;;;4976511;28;20061;-78
2022/06/06 08:16:24;;;;;;;11.23;7.20;;;17.90;92.40;;;;;;4993692;28;20495;-77
2022/06/06 08:19:09;;;;;;;10.55;7.05;;;17.90;92.20;;;;;;4993632;28;20406;-74
2022/06/06 08:21:43;;;;;;;11.82;7.13;;;17.90;92.10;;;;;;4972764;28;20045;-79
2022/06/06 08:24:16;;;;;;;11.13;7.15;;;18.00;92.10;;;;;;4972840;28;20026;-75
2022/06/06 08:26:45;;;;;;;11.95;7.80;;;18.00;92.00;;;;;;4991253;28;20023;-75
2022/06/06 08:29:11;;;;;;;10.25;6.93;;;18.00;91.90;;;;;;4991027;28;20056;-75
2022/06/06 08:31:36;;;;;;;11.45;7.45;;;18.00;91.90;;;;;;4991207;28;20155;-78
2022/06/06 08:34:03;;;;;;;12.00;7.93;;;18.10;91.80;;;;;;4988366;28;20030;-75
2022/06/06 08:36:59;;;;;;;12.13;8.13;;;18.10;91.80;;;;;;4990771;28;20030;-77
2022/06/06 08:39:34;;;;;;;10.90;7.60;;;18.10;91.80;;;;;;4990805;28;20030;-76
2022/06/06 08:42:39;;;;;;;11.30;7.68;;;18.10;91.60;;;;;;4990449;28;20032;-78
2022/06/06 08:45:42;;;;;;;12.13;8.07;;;18.20;91.50;;;;;;4990237;28;20033;-76
2022/06/06 08:48:32;;;;;;;11.98;8.13;;;18.20;91.40;;;;;;4972905;28;20806;-75
2022/06/06 08:51:08;;;;;;;11.63;7.93;;;18.30;91.40;;;;;;4990450;28;20026;-75
2022/06/06 08:54:03;;;;;;;12.20;7.78;;;18.30;91.30;;;;;;4990138;28;20018;-77
2022/06/06 08:56:53;;;;;;;10.85;7.93;;;18.20;91.40;;;;;;4990302;28;20129;-76
2022/06/06 08:59:45;;;;;;;10.90;7.60;;;18.20;91.40;;;;;;4973182;28;20734;-75
2022/06/06 09:02:34;;;;;;;11.48;7.60;;;18.20;91.30;;;;;;4990364;28;20398;-75
2022/06/06 09:05:19;;;;;;;11.85;8.05;;;18.20;91.30;;;;;;4989893;28;20023;-75
2022/06/06 09:07:45;;;;;;;11.57;8.20;;;18.30;91.20;;;;;;4989887;28;20027;-75
2022/06/06 09:10:31;;;;;;;11.80;7.95;;;18.30;91.20;;;;;;4990360;28;20022;-76
2022/06/06 09:13:35;;;;;;;11.40;8.30;;;18.30;91.20;;;;;;4989749;28;20101;-76
2022/06/06 09:16:34;;;;;;;11.00;8.23;;;18.30;91.20;;;;;;4950699;28;20034;-75
2022/06/06 09:19:16;;;;;;;12.60;8.63;;;18.30;91.20;;;;;;4989790;28;20092;-76
2022/06/06 09:22:01;;;;;;;11.13;8.25;;;18.30;91.30;;;;;;4989679;28;20030;-75
2022/06/06 09:24:32;;;;;;;12.60;8.80;;;18.30;91.30;;;;;;4971987;28;20516;-75
2022/06/06 09:27:41;;;;;;;11.95;7.75;;;18.30;91.30;;;;;;4989960;28;20034;-76
2022/06/06 09:30:25;;;;;;;11.52;7.70;;;18.30;91.30;;;;;;4989827;28;20034;-75
2022/06/06 09:33:36;;;;;;;11.68;7.57;;;18.30;91.30;;;;;;4989274;28;20022;-77
2022/06/06 09:36:18;;;;;;;11.05;7.97;;;18.30;91.20;;;;;;4989302;28;20037;-75
2022/06/06 09:39:08;;;;;;;11.43;7.78;;;18.30;91.10;;;;;;4989576;28;20031;-77
2022/06/06 09:41:49;;;;;;;11.10;7.57;;;18.40;91.10;;;;;;4972240;28;20034;-76
2022/06/06 09:44:34;;;;;;;10.93;6.78;;;18.40;91.10;;;;;;4989264;28;20033;-74
2022/06/06 09:47:23;;;;;;;10.32;7.00;;;18.40;91.00;;;;;;4989087;28;20093;-75
2022/06/06 09:50:22;;;;;;;10.73;7.57;;;18.40;90.90;;;;;;4971365;28;20052;-76
2022/06/06 09:53:20;;;;;;;10.90;7.38;;;18.50;90.80;;;;;;4954481;28;20063;-75
2022/06/06 09:59:32;;;;;;;10.73;7.15;;;18.40;90.80;;;;;;4970018;28;20041;-77
2022/06/06 10:02:05;;;;;;;10.45;7.30;;;18.40;90.80;;;;;;4980623;28;20033;-77
2022/06/06 10:05:04;;;;;;;9.68;7.00;;;18.40;90.90;;;;;;4989152;28;20041;-77
2022/06/06 10:07:40;;;;;;;10.65;6.90;;;18.40;90.90;;;;;;4989756;28;20025;-78
2022/06/06 10:10:48;;;;;;;10.93;7.25;;;18.40;90.90;;;;;;4990077;28;20015;-79
2022/06/06 10:13:46;;;;;;;10.10;6.63;;;18.30;91.00;;;;;;4972051;28;20050;-81
2022/06/06 10:16:25;;;;;;;10.38;7.00;;;18.40;91.00;;;;;;4963007;28;20273;-75
2022/06/06 10:19:13;;;;;;;10.02;6.55;;;18.40;91.00;;;;;;4989564;28;20031;-78
2022/06/06 10:21:47;;;;;;;10.27;6.68;;;18.40;90.90;;;;;;4970991;28;20117;-77
2022/06/06 10:24:21;;;;;;;9.00;6.30;;;18.40;90.90;;;;;;4989118;28;20459;-78
2022/06/06 10:26:57;;;;;;;8.60;6.10;;;18.40;90.90;;;;;;4972198;28;20014;-78
2022/06/06 10:29:22;;;;;;;8.95;6.00;;;18.40;90.90;;;;;;4989421;28;20045;-78
2022/06/06 10:32:16;;;;;;;9.13;6.35;;;18.40;91.00;;;;;;4972294;28;20471;-76
2022/06/06 10:35:08;;;;;;;10.18;6.88;;;18.40;91.00;;;;;;4971640;28;20502;-79
2022/06/06 10:37:52;;;;;;;8.95;6.15;;;18.40;91.10;;;;;;4971693;28;20076;-78
2022/06/06 10:40:45;;;;;;;9.95;6.10;;;18.40;91.10;;;;;;4971815;28;20118;-78
2022/06/06 10:43:17;;;;;;;9.25;5.70;;;18.40;90.90;;;;;;4988457;28;20034;-78
2022/06/06 10:45:48;;;;;;;8.93;5.68;;;18.40;90.80;;;;;;4989059;28;20888;-77
2022/06/06 10:48:32;;;;;;;9.25;5.95;;;18.50;90.80;;;;;;4973557;28;20081;-77
2022/06/06 10:51:37;;;;;;;7.90;5.20;;;18.50;90.70;;;;;;4979318;28;20035;-76
2022/06/06 10:54:41;;;;;;;8.50;5.70;;;18.50;90.80;;;;;;4978457;28;20018;-75
2022/06/06 10:57:34;;;;;;;9.57;5.75;;;18.40;90.70;;;;;;4971497;28;20041;-77
2022/06/06 11:00:18;;;;;;;8.35;5.60;;;18.40;90.90;;;;;;4971583;28;20037;-79
2022/06/06 11:02:50;;;;;;;8.40;5.22;;;18.40;90.90;;;;;;4975394;28;20081;-77
2022/06/06 11:05:34;;;;;;;7.78;5.13;;;18.40;91.00;;;;;;4992557;28;20031;-78
2022/06/06 11:08:26;;;;;;;8.93;5.40;;;18.30;91.00;;;;;;4975477;28;20129;-76
2022/06/06 11:11:24;;;;;;;7.43;4.70;;;18.30;91.10;;;;;;4975504;28;20029;-78
2022/06/06 11:14:05;;;;;;;8.87;5.43;;;18.30;91.00;;;;;;4975084;28;20023;-76
2022/06/06 11:16:37;;;;;;;;;;;18.30;91.10;;;;;;4994657;28;20262;-77
2022/06/06 11:19:38;;;;;;;8.32;4.88;;;18.30;91.00;;;;;;4958984;28;19906;-76
2022/06/06 11:22:27;;;;;;;10.35;5.07;;;18.30;91.00;;;;;;4955900;28;20052;-77
2022/06/06 11:25:16;;;;;;;8.73;5.43;;;18.40;91.00;;;;;;4972760;28;20054;-77
2022/06/06 11:28:03;;;;;;;7.90;4.63;;;18.40;91.00;;;;;;4972467;28;20496;-73
2022/06/06 11:30:42;;;;;;;8.43;5.43;;;18.40;91.00;;;;;;4955866;28;20110;-76
2022/06/06 11:33:29;;;;;;;8.25;5.20;;;18.30;91.00;;;;;;4972352;28;20511;-75
2022/06/06 11:36:28;;;;;;;7.60;4.78;;;18.30;91.00;;;;;;4972341;28;20031;-76
2022/06/06 11:39:21;;;;;;;8.40;5.72;;;18.30;91.10;;;;;;4955547;28;20415;-76
2022/06/06 11:41:50;;;;;;;7.82;4.82;;;18.30;91.10;;;;;;4955419;28;20027;-77
2022/06/06 11:44:35;;;;;;;7.30;4.85;;;18.40;91.00;;;;;;4954911;28;20027;-76
2022/06/06 11:47:24;;;;;;;7.72;4.57;;;18.40;91.00;;;;;;4974014;28;20054;-81
2022/06/06 11:50:01;;;;;;;7.47;4.60;;;18.40;90.90;;;;;;4971859;28;20021;-78
2022/06/06 11:52:51;;;;;;;7.47;4.78;;;18.40;90.80;;;;;;5001390;28;20046;-77
2022/06/06 11:55:59;;;;;;;7.45;4.68;;;18.40;90.80;;;;;;4972446;28;20050;-78
2022/06/06 11:58:47;;;;;;;7.53;4.50;;;18.40;90.80;;;;;;4961657;28;20248;-79
2022/06/06 12:01:50;;;;;;;7.18;4.38;;;18.40;90.90;;;;;;4982626;28;20026;-79
2022/06/06 12:04:49;;;;;;;7.28;4.38;;;18.40;90.90;;;;;;4995661;28;20049;-79
2022/06/06 12:07:52;;;;;;;6.95;4.32;;;18.40;90.90;;;;;;4996399;28;20438;-79
2022/06/06 12:10:24;;;;;;;7.35;4.68;;;18.40;90.90;;;;;;4976623;28;20035;-79
2022/06/06 12:13:26;;;;;;;7.20;4.60;;;18.40;91.00;;;;;;4959261;28;20539;-78
2022/06/06 12:16:21;;;;;;;6.45;4.00;;;18.30;91.00;;;;;;4976715;28;20395;-78
2022/06/06 12:18:54;;;;;;;7.10;4.50;;;18.30;91.00;;;;;;4975463;28;20027;-79
2022/06/06 12:21:38;;;;;;;7.25;4.18;;;18.30;91.00;;;;;;4976732;28;20023;-78
2022/06/06 12:24:22;;;;;;;6.63;4.10;;;18.30;91.10;;;;;;4977440;28;20385;-79
2022/06/06 12:27:06;;;;;;;6.47;4.03;;;18.30;91.10;;;;;;4976641;28;20043;-79
2022/06/06 12:29:51;;;;;;;7.05;4.50;;;18.30;91.10;;;;;;4974099;28;20066;-79
2022/06/06 12:32:42;;;;;;;7.63;4.28;;;18.30;91.20;;;;;;4973055;28;20033;-78
2022/06/06 12:35:34;;;;;;;6.68;4.05;;;18.30;91.20;;;;;;4971635;28;20488;-78
2022/06/06 12:38:05;;;;;;;6.65;3.97;;;18.30;91.20;;;;;;4972435;28;20574;-79
2022/06/06 12:40:36;;;;;;;6.88;4.03;;;18.30;91.10;;;;;;4972998;28;20059;-79
2022/06/06 12:43:30;;;;;;;6.30;3.70;;;18.30;91.10;;;;;;4972192;28;20031;-79
2022/06/06 12:46:29;;;;;;;6.40;3.80;;;18.40;91.00;;;;;;4975489;28;20583;-77
2022/06/06 12:49:13;;;;;;;6.93;3.97;;;18.30;91.00;;;;;;4976617;28;20030;-78
2022/06/06 12:51:59;;;;;;;6.88;3.70;;;18.30;90.90;;;;;;4976225;28;20019;-78
2022/06/06 12:57:39;;;;;;;6.18;3.75;;;18.30;91.10;;;;;;4975616;28;20046;-78
2022/06/06 13:00:14;;;;;;;5.85;3.72;;;18.30;91.20;;;;;;4958654;28;20027;-79
2022/06/06 13:03:09;;;;;;;6.68;4.13;;;18.20;91.30;;;;;;4975991;28;20027;-79
2022/06/06 13:05:53;;;;;;;6.60;3.90;;;18.20;91.30;;;;;;4974851;28;20578;-78
2022/06/06 13:08:37;;;;;;;5.95;3.47;;;18.10;91.40;;;;;;4975598;28;20031;-78
2022/06/06 13:11:20;;;;;;;6.13;3.60;;;18.10;91.40;;;;;;4975927;28;20053;-78
2022/06/06 13:14:13;;;;;;;6.00;3.72;;;18.10;91.50;;;;;;4975481;28;20479;-78
2022/06/06 13:17:05;;;;;;;5.28;3.20;;;18.10;91.50;;;;;;4974913;28;20027;-77
2022/06/06 13:20:06;;;;;;;6.55;3.72;;;18.10;91.50;;;;;;4975763;28;20019;-79
2022/06/06 13:22:56;;;;;;;6.82;3.60;;;18.10;91.50;;;;;;4945605;28;20031;-79
2022/06/06 13:25:33;;;;;;;6.50;3.70;;;18.10;91.60;;;;;;4975183;28;20022;-79
2022/06/06 13:28:00;;;;;;;6.10;3.42;;;18.10;91.60;;;;;;4975748;28;20664;-79
2022/06/06 13:30:33;;;;;;;6.20;3.75;;;18.10;91.60;;;;;;4974018;28;20019;-79
2022/06/06 13:33:33;;;;;;;5.65;3.28;;;18.10;91.60;;;;;;4975112;28;20114;-78
2022/06/06 13:36:37;;;;;;;5.93;3.70;;;18.10;91.50;;;;;;4975309;28;20491;-79
2022/06/06 13:39:25;;;;;;;6.05;3.40;;;18.20;91.50;;;;;;4957995;28;20034;-78
2022/06/06 13:42:07;;;;;;;6.90;3.58;;;18.20;91.40;;;;;;4957912;28;20077;-78
2022/06/06 13:45:10;;;;;;;5.80;3.25;;;18.20;91.30;;;;;;4974696;28;20091;-78
2022/06/06 13:48:13;;;;;;;5.95;3.33;;;18.20;91.20;;;;;;4973952;28;20031;-78
2022/06/06 13:50:55;;;;;;;6.00;3.42;;;18.30;91.20;;;;;;4957695;28;20075;-79
2022/06/06 13:53:45;;;;;;;5.95;3.42;;;18.30;91.20;;;;;;4973499;28;20027;-78
2022/06/06 13:56:18;;;;;;;;;;;18.20;91.20;;;;;;4975524;28;20034;-78
2022/06/06 13:59:00;;;;;;;6.30;3.70;;;18.20;91.20;;;;;;4957373;28;20438;-79
2022/06/06 14:01:34;;;;;;;5.93;3.35;;;18.10;91.30;;;;;;4974921;28;20113;-79
2022/06/06 14:04:30;;;;;;;5.40;3.20;;;18.10;91.40;;;;;;4974386;28;20027;-78
2022/06/06 14:07:07;;;;;;;5.15;2.88;;;18.10;91.40;;;;;;4974911;28;20038;-78
2022/06/06 14:09:40;;;;;;;4.80;2.85;;;18.10;91.50;;;;;;4974455;28;20027;-79
2022/06/06 14:12:13;;;;;;;5.40;3.00;;;18.10;91.50;;;;;;4973388;28;20102;-78
2022/06/06 14:14:39;;;;;;;5.50;3.10;;;18.10;91.50;;;;;;4957041;28;20511;-78
2022/06/06 14:17:08;;;;;;;5.75;3.28;;;18.10;91.60;;;;;;4974740;28;20066;-78